createdAt,value
2018-11-28T00:00:47.697Z,36.40
2018-11-28T00:04:50.773Z,33.60
2018-11-28T00:08:53.645Z,34.13
2018-11-28T00:12:56.520Z,36.63
2018-11-28T00:16:59.644Z,35.20
2018-11-28T00:21:02.570Z,33.03
2018-11-28T00:25:05.675Z,36.83
2018-11-28T00:29:08.537Z,37.03
2018-11-28T00:33:11.432Z,36.73
2018-11-28T00:37:14.501Z,35.07
2018-11-28T00:41:17.377Z,41.27
2018-11-28T00:45:21.477Z,32.13
2018-11-28T00:49:24.363Z,37.90
2018-11-28T00:53:27.217Z,34.77
2018-11-28T00:57:30.149Z,34.87
2018-11-28T01:01:33.041Z,34.17
2018-11-28T01:05:36.118Z,33.20
2018-11-28T01:09:38.977Z,29.70
2018-11-28T01:13:41.861Z,33.77
2018-11-28T01:17:44.811Z,35.20
2018-11-28T01:21:47.897Z,33.10
2018-11-28T01:25:50.759Z,29.60
2018-11-28T01:29:53.637Z,32.60
2018-11-28T01:33:56.701Z,33.03
2018-11-28T01:37:59.577Z,29.23
2018-11-28T01:42:02.485Z,34.17
2018-11-28T01:46:05.413Z,28.37
2018-11-28T01:50:10.646Z,31.87
2018-11-28T01:54:13.521Z,34.53
2018-11-28T01:58:16.417Z,32.40
2018-11-28T02:02:19.284Z,32.03
2018-11-28T02:06:22.349Z,29.43
2018-11-28T02:10:25.228Z,27.77
2018-11-28T02:14:28.314Z,31.13
2018-11-28T02:18:31.430Z,34.37
2018-11-28T02:22:34.291Z,28.97
2018-11-28T02:26:37.165Z,37.40
2018-11-28T02:30:40.030Z,34.87
2018-11-28T02:34:42.969Z,32.77
2018-11-28T02:38:45.872Z,33.73
2018-11-28T02:42:49.132Z,31.33
2018-11-28T02:46:52.210Z,31.73
2018-11-28T02:50:55.090Z,33.37
2018-11-28T02:54:58.158Z,32.77
2018-11-28T02:59:01.258Z,32.07
2018-11-28T03:03:04.117Z,33.33
2018-11-28T03:07:07.005Z,31.70
2018-11-28T03:11:09.872Z,29.17
2018-11-28T03:15:14.242Z,30.60
2018-11-28T03:19:17.314Z,33.43
2018-11-28T03:23:20.241Z,28.40
2018-11-28T03:27:23.117Z,35.83
2018-11-28T03:31:25.990Z,33.40
2018-11-28T03:35:28.859Z,29.50
2018-11-28T03:39:31.725Z,35.70
2018-11-28T03:43:34.590Z,30.60
2018-11-28T03:47:37.469Z,33.93
2018-11-28T03:51:40.325Z,40.30
2018-11-28T03:55:43.201Z,32.63
2018-11-28T03:59:46.098Z,36.80
2018-11-28T04:03:49.214Z,37.97
2018-11-28T04:07:52.074Z,30.70
2018-11-28T04:11:54.946Z,29.60
2018-11-28T04:15:57.823Z,32.10
2018-11-28T04:20:00.720Z,35.67
2018-11-28T04:24:03.641Z,32.70
2018-11-28T04:28:06.555Z,27.23
2018-11-28T04:32:09.417Z,33.43
2018-11-28T04:36:12.285Z,38.00
2018-11-28T04:40:15.594Z,30.57
2018-11-28T04:44:18.473Z,29.97
2018-11-28T04:48:21.337Z,36.20
2018-11-28T04:52:24.225Z,31.27
2018-11-28T04:56:27.103Z,32.07
2018-11-28T05:00:30.195Z,30.43
2018-11-28T05:04:33.048Z,32.73
2018-11-28T05:08:36.148Z,31.87
2018-11-28T05:12:39.266Z,35.33
2018-11-28T05:16:42.153Z,37.13
2018-11-28T05:20:45.258Z,35.50
2018-11-28T05:24:48.129Z,34.00
2018-11-28T05:28:50.989Z,32.00
2018-11-28T05:32:53.877Z,34.23
2018-11-28T05:36:56.737Z,34.67
2018-11-28T05:40:59.614Z,33.63
2018-11-28T05:45:02.477Z,34.60
2018-11-28T05:49:05.411Z,31.70
2018-11-28T05:53:08.486Z,31.93
2018-11-28T05:57:11.356Z,37.53
2018-11-28T06:01:14.228Z,37.57
2018-11-28T06:05:17.314Z,35.00
2018-11-28T06:09:20.185Z,34.37
2018-11-28T06:13:23.126Z,32.33
2018-11-28T06:17:25.993Z,41.50
2018-11-28T06:21:28.887Z,33.67
2018-11-28T06:25:32.016Z,37.97
2018-11-28T06:29:34.885Z,33.00
2018-11-28T06:33:37.959Z,35.47
2018-11-28T06:37:41.282Z,34.47
2018-11-28T06:41:44.141Z,36.43
2018-11-28T06:45:47.226Z,30.90
2018-11-28T06:49:50.085Z,33.77
2018-11-28T06:53:52.989Z,33.17
2018-11-28T06:57:55.853Z,31.87
2018-11-28T07:01:58.730Z,39.43
2018-11-28T07:06:01.806Z,34.87
2018-11-28T07:10:06.625Z,33.23
2018-11-28T07:14:09.521Z,38.20
2018-11-28T07:18:24.142Z,35.60
2018-11-28T07:22:27.093Z,33.97
2018-11-28T07:26:29.972Z,37.37
2018-11-28T07:30:37.698Z,36.30
2018-11-28T07:34:36.023Z,30.20
2018-11-28T07:38:38.891Z,43.93
2018-11-28T07:42:42.589Z,32.27
2018-11-28T07:46:45.449Z,30.43
2018-11-28T07:50:48.329Z,36.17
2018-11-28T07:54:51.410Z,30.50
2018-11-28T07:58:54.495Z,35.20
2018-11-28T08:02:57.357Z,32.03
2018-11-28T08:07:00.233Z,32.17
2018-11-28T08:11:03.553Z,36.57
2018-11-28T08:15:07.037Z,34.13
2018-11-28T08:19:09.901Z,30.30
2018-11-28T08:23:12.793Z,32.87
2018-11-28T08:27:15.666Z,27.77
2018-11-28T08:31:18.537Z,31.60
2018-11-28T08:35:21.638Z,35.20
2018-11-28T08:39:24.509Z,33.03
2018-11-28T08:43:27.582Z,34.93
2018-11-28T08:47:30.465Z,33.40
2018-11-28T08:51:33.348Z,30.33
2018-11-28T08:55:36.210Z,41.00
2018-11-28T08:59:39.282Z,27.90
2018-11-28T09:03:42.165Z,32.83
2018-11-28T09:07:45.029Z,35.30
2018-11-28T09:11:47.909Z,32.97
2018-11-28T09:15:50.776Z,34.13
2018-11-28T09:19:53.870Z,30.60
2018-11-28T09:23:56.758Z,31.37
2018-11-28T09:27:59.878Z,38.57
2018-11-28T09:32:02.733Z,35.47
2018-11-28T09:36:05.616Z,28.83
2018-11-28T09:40:11.137Z,32.97
2018-11-28T09:44:14.023Z,28.97
2018-11-28T09:48:16.887Z,30.83
2018-11-28T09:52:19.768Z,32.93
2018-11-28T09:56:22.841Z,36.20
2018-11-28T10:00:26.201Z,30.00
2018-11-28T10:04:29.065Z,34.17
2018-11-28T10:08:31.959Z,31.77
2018-11-28T10:12:38.633Z,33.13
2018-11-28T10:16:41.588Z,31.27
2018-11-28T10:20:44.370Z,30.20
2018-11-28T10:24:47.270Z,33.23
2018-11-28T10:28:50.141Z,30.53
2018-11-28T10:32:53.202Z,28.37
2018-11-28T10:36:56.087Z,24.17
2018-11-28T10:40:58.965Z,35.27
2018-11-28T10:45:01.837Z,33.20
2018-11-28T10:49:04.734Z,31.40
2018-11-28T10:53:07.809Z,29.70
2018-11-28T10:57:10.689Z,31.50
2018-11-28T11:01:19.008Z,22.53
2018-11-28T11:05:27.381Z,30.67
2018-11-28T11:09:35.905Z,31.53
2018-11-28T11:13:45.934Z,30.73
2018-11-28T11:17:48.794Z,28.80
2018-11-28T11:21:51.669Z,26.87
2018-11-28T11:25:54.565Z,25.83
2018-11-28T11:29:57.478Z,31.57
2018-11-28T11:34:00.329Z,29.57
2018-11-28T11:38:03.205Z,35.37
2018-11-28T11:42:06.461Z,25.87
2018-11-28T11:46:09.334Z,35.73
2018-11-28T11:50:12.685Z,30.37
2018-11-28T11:54:15.557Z,28.60
2018-11-28T11:58:18.425Z,27.20
2018-11-28T12:02:21.313Z,27.10
2018-11-28T12:06:24.205Z,30.93
2018-11-28T12:10:27.090Z,27.37
2018-11-28T12:14:29.954Z,28.20
2018-11-28T12:18:32.873Z,28.30
2018-11-28T12:22:35.910Z,31.80
2018-11-28T12:26:38.817Z,29.90
2018-11-28T12:30:41.681Z,30.37
2018-11-28T12:34:50.330Z,27.50
2018-11-28T12:38:48.466Z,33.93
2018-11-28T12:42:51.846Z,27.10
2018-11-28T12:46:54.706Z,30.83
2018-11-28T12:50:57.585Z,32.13
2018-11-28T12:55:00.449Z,28.40
2018-11-28T12:59:03.543Z,32.00
2018-11-28T13:03:07.181Z,33.97
2018-11-28T13:07:10.270Z,35.70
2018-11-28T13:11:13.138Z,30.27
2018-11-28T13:15:17.285Z,32.73
2018-11-28T13:19:20.174Z,31.30
2018-11-28T13:23:23.261Z,29.13
2018-11-28T13:27:26.378Z,29.07
2018-11-28T13:31:29.261Z,33.60
2018-11-28T13:35:32.156Z,33.43
2018-11-28T13:39:35.009Z,31.30
2018-11-28T13:43:37.873Z,33.50
2018-11-28T13:47:41.127Z,28.60
2018-11-28T13:51:44.202Z,30.93
2018-11-28T13:56:29.830Z,29.77
2018-11-28T13:59:53.769Z,30.30
2018-11-28T14:03:56.858Z,27.23
2018-11-28T14:07:59.721Z,27.20
2018-11-28T14:12:02.599Z,28.83
2018-11-28T14:16:05.473Z,31.80
2018-11-28T14:20:09.006Z,33.20
2018-11-28T14:24:11.868Z,31.07
2018-11-28T14:28:14.760Z,29.60
2018-11-28T14:32:17.838Z,33.90
2018-11-28T14:36:20.717Z,31.53
2018-11-28T14:40:23.854Z,27.37
2018-11-28T14:44:26.737Z,29.40
2018-11-28T14:48:29.601Z,26.90
2018-11-28T14:52:32.493Z,26.67
2018-11-28T14:56:35.353Z,29.80
2018-11-28T15:00:38.245Z,28.03
2018-11-28T15:04:41.318Z,31.60
2018-11-28T15:08:44.225Z,24.50
2018-11-28T15:12:47.085Z,27.80
2018-11-28T15:16:49.965Z,25.40
2018-11-28T15:20:52.837Z,26.13
2018-11-28T15:24:55.721Z,26.10
2018-11-28T15:28:59.341Z,22.93
2018-11-28T15:33:02.230Z,19.20
2018-11-28T15:37:06.354Z,21.77
2018-11-28T15:41:09.237Z,20.20
2018-11-28T15:45:12.108Z,23.00
2018-11-28T15:49:14.989Z,26.07
2018-11-28T15:53:17.853Z,17.00
2018-11-28T15:57:20.729Z,21.07
2018-11-28T16:01:23.621Z,20.50
2018-11-28T16:05:26.497Z,22.20
2018-11-28T16:09:35.061Z,20.50
2018-11-28T16:13:37.958Z,19.93
2018-11-28T16:17:41.037Z,22.90
2018-11-28T16:21:43.918Z,20.40
2018-11-28T16:25:46.801Z,18.97
2018-11-28T16:29:49.689Z,20.33
2018-11-28T16:33:52.549Z,19.27
2018-11-28T16:37:55.666Z,22.20
2018-11-28T16:41:58.530Z,21.07
2018-11-28T16:46:01.611Z,18.63
2018-11-28T16:50:04.601Z,18.43
2018-11-28T16:54:07.502Z,21.50
2018-11-28T16:58:10.361Z,20.10
2018-11-28T17:02:13.229Z,23.80
2018-11-28T17:06:16.361Z,21.63
2018-11-28T17:10:22.102Z,21.03
2018-11-28T17:14:24.957Z,20.20
2018-11-28T17:18:27.853Z,24.40
2018-11-28T17:22:30.937Z,24.40
2018-11-28T17:26:33.813Z,21.90
2018-11-28T17:30:36.732Z,27.43
2018-11-28T17:34:39.834Z,25.83
2018-11-28T17:38:42.717Z,26.97
2018-11-28T17:42:47.046Z,19.43
2018-11-28T17:46:49.913Z,27.10
2018-11-28T17:50:52.777Z,23.70
2018-11-28T17:54:55.637Z,23.87
2018-11-28T17:58:58.721Z,22.73
2018-11-28T18:03:01.580Z,26.03
2018-11-28T18:07:04.725Z,24.50
2018-11-28T18:11:10.134Z,28.70
2018-11-28T18:15:13.013Z,25.40
2018-11-28T18:19:16.086Z,26.80
2018-11-28T18:23:18.989Z,21.50
2018-11-28T18:27:21.865Z,24.43
2018-11-28T18:31:24.988Z,26.33
2018-11-28T18:35:27.841Z,25.47
2018-11-28T18:39:30.922Z,26.37
2018-11-28T18:43:33.789Z,24.23
2018-11-28T18:47:36.665Z,22.63
2018-11-28T18:51:39.744Z,25.10
2018-11-28T18:55:42.644Z,24.13
2018-11-28T18:59:45.734Z,23.70
2018-11-28T19:03:48.631Z,27.37
2018-11-28T19:07:51.490Z,26.07
2018-11-28T19:11:54.467Z,28.93
2018-11-28T19:15:57.289Z,26.17
2018-11-28T19:20:00.389Z,28.40
2018-11-28T19:24:03.257Z,32.73
2018-11-28T19:28:06.190Z,26.33
2018-11-28T19:32:09.235Z,30.13
2018-11-28T19:36:12.117Z,26.90
2018-11-28T19:40:19.857Z,26.83
2018-11-28T19:44:22.731Z,28.67
2018-11-28T19:48:25.593Z,31.93
2018-11-28T19:52:28.477Z,27.73
2018-11-28T19:56:31.348Z,32.33
2018-11-28T20:00:34.269Z,31.33
2018-11-28T20:04:37.126Z,31.03
2018-11-28T20:08:40.053Z,33.30
2018-11-28T20:12:43.125Z,30.20
2018-11-28T20:16:45.998Z,31.60
2018-11-28T20:20:49.066Z,36.00
2018-11-28T20:24:51.946Z,35.17
2018-11-28T20:28:54.813Z,30.90
2018-11-28T20:32:57.713Z,30.60
2018-11-28T20:37:00.782Z,30.47
2018-11-28T20:41:03.693Z,31.70
2018-11-28T20:45:07.386Z,31.67
2018-11-28T20:49:10.461Z,31.43
2018-11-28T20:53:14.807Z,30.90
2018-11-28T20:57:18.302Z,29.97
2018-11-28T21:01:21.139Z,31.60
2018-11-28T21:05:23.965Z,30.10
2018-11-28T21:09:26.837Z,27.63
2018-11-28T21:13:29.966Z,35.77
2018-11-28T21:17:32.833Z,28.70
2018-11-28T21:21:35.713Z,30.43
2018-11-28T21:25:38.787Z,32.97
2018-11-28T21:29:41.697Z,28.07
2018-11-28T21:33:44.585Z,31.23
2018-11-28T21:37:47.461Z,28.83
2018-11-28T21:41:50.539Z,29.50
2018-11-28T21:45:53.618Z,27.27
2018-11-28T21:49:56.470Z,26.63
2018-11-28T21:53:59.571Z,25.43
2018-11-28T21:58:02.445Z,21.87
2018-11-28T22:02:05.933Z,24.80
2018-11-28T22:06:08.793Z,24.97
2018-11-28T22:10:27.358Z,24.43
2018-11-28T22:14:30.229Z,22.30
2018-11-28T22:18:33.110Z,23.90
2018-11-28T22:22:35.969Z,24.37
2018-11-28T22:26:39.062Z,22.27
2018-11-28T22:30:41.969Z,23.60
2018-11-28T22:34:45.082Z,22.67
2018-11-28T22:38:48.157Z,23.27
2018-11-28T22:42:51.044Z,22.90
2018-11-28T22:46:54.114Z,23.97
2018-11-28T22:50:57.020Z,19.73
2018-11-28T22:54:59.884Z,20.50
2018-11-28T22:59:02.769Z,21.07
2018-11-28T23:03:07.345Z,21.63
2018-11-28T23:07:10.221Z,21.80
2018-11-28T23:11:13.294Z,22.33
2018-11-28T23:15:16.277Z,22.87
2018-11-28T23:19:19.361Z,19.50
2018-11-28T23:23:22.234Z,18.97
2018-11-28T23:27:25.086Z,21.47
2018-11-28T23:31:28.174Z,19.67
2018-11-28T23:35:31.151Z,23.70
2018-11-28T23:39:34.081Z,19.57
2018-11-28T23:43:36.901Z,24.53
2018-11-28T23:47:39.785Z,32.50
2018-11-28T23:51:42.645Z,19.00
2018-11-28T23:55:45.526Z,19.40
2018-11-28T23:59:48.397Z,20.33
